createdAt,value
2023-04-23T00:01:28.414Z,8.58
2023-04-23T00:03:58.533Z,8.57
2023-04-23T00:06:28.433Z,8.56
2023-04-23T00:09:00.128Z,8.55
2023-04-23T00:11:28.858Z,8.54
2023-04-23T00:13:56.916Z,8.51
2023-04-23T00:16:25.627Z,8.47
2023-04-23T00:18:53.569Z,8.42
2023-04-23T00:21:21.388Z,8.37
2023-04-23T00:23:49.312Z,8.32
2023-04-23T00:26:19.093Z,8.27
2023-04-23T00:28:47.031Z,8.21
2023-04-23T00:31:15.188Z,8.17
2023-04-23T00:33:43.080Z,8.15
2023-04-23T00:36:11.210Z,8.12
2023-04-23T00:38:39.198Z,8.12
2023-04-23T00:41:07.338Z,8.12
2023-04-23T00:43:37.556Z,8.13
2023-04-23T00:46:07.116Z,8.15
2023-04-23T00:48:35.948Z,8.16
2023-04-23T00:51:06.074Z,8.16
2023-04-23T00:53:34.068Z,8.17
2023-04-23T00:56:04.156Z,8.17
2023-04-23T00:58:33.337Z,8.19
2023-04-23T01:01:03.339Z,8.17
2023-04-23T01:03:32.519Z,8.18
2023-04-23T01:06:00.752Z,8.18
2023-04-23T01:08:30.090Z,8.19
2023-04-23T01:10:58.300Z,8.20
2023-04-23T01:13:30.076Z,8.20
2023-04-23T01:15:58.356Z,8.20
2023-04-23T01:18:27.218Z,8.18
2023-04-23T01:20:55.394Z,8.16
2023-04-23T01:23:23.342Z,8.14
2023-04-23T01:25:51.430Z,8.13
2023-04-23T01:28:19.500Z,8.12
2023-04-23T01:30:48.368Z,8.12
2023-04-23T01:33:16.580Z,8.11
2023-04-23T01:35:45.206Z,8.11
2023-04-23T01:38:14.925Z,8.09
2023-04-23T01:40:42.905Z,8.12
2023-04-23T01:43:10.921Z,8.11
2023-04-23T01:45:39.039Z,8.13
2023-04-23T01:48:08.212Z,8.18
2023-04-23T01:50:36.486Z,8.22
2023-04-23T01:53:04.435Z,8.24
2023-04-23T01:55:34.258Z,8.28
2023-04-23T01:58:02.205Z,8.31
2023-04-23T02:00:30.596Z,8.32
2023-04-23T02:02:58.608Z,8.35
2023-04-23T02:05:29.548Z,8.38
2023-04-23T02:07:57.325Z,8.39
2023-04-23T02:10:25.575Z,8.41
2023-04-23T02:12:53.351Z,8.41
2023-04-23T02:15:21.289Z,8.44
2023-04-23T02:17:51.120Z,8.45
2023-04-23T02:20:21.192Z,8.46
2023-04-23T02:22:52.671Z,8.48
2023-04-23T02:25:21.396Z,8.48
2023-04-23T02:27:50.148Z,8.48
2023-04-23T02:30:18.124Z,8.48
2023-04-23T02:32:46.403Z,8.49
2023-04-23T02:35:14.413Z,8.48
2023-04-23T02:37:42.159Z,8.45
2023-04-23T02:40:11.373Z,8.45
2023-04-23T02:42:40.312Z,8.45
2023-04-23T02:45:10.023Z,8.45
2023-04-23T02:47:38.315Z,8.45
2023-04-23T02:50:07.563Z,8.47
2023-04-23T02:52:38.428Z,8.48
2023-04-23T02:55:08.602Z,8.46
2023-04-23T02:57:43.976Z,8.47
2023-04-23T03:00:19.593Z,8.46
2023-04-23T03:02:47.989Z,8.45
2023-04-23T03:05:16.449Z,8.46
2023-04-23T03:07:44.376Z,8.46
2023-04-23T03:10:12.535Z,8.45
2023-04-23T03:12:40.417Z,8.45
2023-04-23T03:15:11.297Z,8.43
2023-04-23T03:17:39.597Z,8.40
2023-04-23T03:20:11.010Z,8.39
2023-04-23T03:22:39.120Z,8.38
2023-04-23T03:25:08.744Z,8.37
2023-04-23T03:27:44.089Z,8.35
2023-04-23T03:30:12.460Z,8.35
2023-04-23T03:32:40.908Z,8.33
2023-04-23T03:35:09.310Z,8.32
2023-04-23T03:37:37.612Z,8.30
2023-04-23T03:40:07.969Z,8.31
2023-04-23T03:42:37.092Z,8.28
2023-04-23T03:45:06.823Z,8.25
2023-04-23T03:47:36.366Z,8.25
2023-04-23T03:50:05.227Z,8.23
2023-04-23T03:52:33.369Z,8.24
2023-04-23T03:55:02.441Z,8.25
2023-04-23T03:57:32.135Z,8.25
2023-04-23T04:00:09.125Z,8.30
2023-04-23T04:02:40.416Z,8.34
2023-04-23T04:05:10.922Z,8.38
2023-04-23T04:07:44.503Z,8.44
2023-04-23T04:10:13.407Z,8.46
2023-04-23T04:12:41.930Z,8.50
2023-04-23T04:15:13.209Z,8.54
2023-04-23T04:17:41.033Z,8.57
2023-04-23T04:20:10.698Z,8.62
2023-04-23T04:22:38.781Z,8.66
2023-04-23T04:25:07.427Z,8.71
2023-04-23T04:27:35.717Z,8.76
2023-04-23T04:30:05.021Z,8.79
2023-04-23T04:32:32.963Z,8.84
2023-04-23T04:35:02.229Z,8.87
2023-04-23T04:37:29.999Z,8.92
2023-04-23T04:39:57.975Z,8.96
2023-04-23T04:42:25.811Z,9.03
2023-04-23T04:44:53.627Z,9.05
2023-04-23T04:47:21.857Z,9.12
2023-04-23T04:49:49.570Z,9.19
2023-04-23T04:52:17.547Z,9.24
2023-04-23T04:54:45.546Z,9.30
2023-04-23T04:57:13.423Z,9.40
2023-04-23T04:59:41.871Z,9.49
2023-04-23T05:02:10.392Z,9.55
2023-04-23T05:04:42.526Z,9.64
2023-04-23T05:07:13.023Z,9.73
2023-04-23T05:09:44.820Z,9.86
2023-04-23T05:12:13.247Z,9.99
2023-04-23T05:14:46.327Z,10.12
2023-04-23T05:17:16.481Z,10.28
2023-04-23T05:19:44.779Z,10.43
2023-04-23T05:22:12.934Z,10.60
2023-04-23T05:24:41.226Z,10.74
2023-04-23T05:27:19.770Z,10.88
2023-04-23T05:29:48.025Z,11.04
2023-04-23T05:32:16.511Z,11.23
2023-04-23T05:34:44.619Z,11.40
2023-04-23T05:37:12.558Z,11.54
2023-04-23T05:39:43.937Z,11.68
2023-04-23T05:42:12.469Z,11.71
2023-04-23T05:44:41.600Z,11.76
2023-04-23T05:47:12.888Z,11.90
2023-04-23T05:49:43.787Z,12.10
2023-04-23T05:52:19.870Z,12.27
2023-04-23T05:55:05.885Z,12.50
2023-04-23T05:57:40.541Z,12.68
2023-04-23T06:00:12.648Z,12.85
2023-04-23T06:02:42.721Z,13.07
2023-04-23T06:05:11.246Z,13.40
2023-04-23T06:07:40.893Z,13.64
2023-04-23T06:10:11.351Z,13.89
2023-04-23T06:16:17.674Z,14.62
2023-04-23T06:19:01.182Z,15.13
2023-04-23T06:28:15.654Z,16.82
2023-04-23T06:30:54.678Z,16.86
2023-04-23T06:33:40.163Z,17.07
2023-04-23T06:36:22.321Z,17.14
2023-04-23T06:39:03.279Z,17.14
2023-04-23T06:41:43.805Z,17.08
2023-04-23T06:44:45.766Z,17.10
2023-04-23T06:47:35.183Z,17.23
2023-04-23T06:50:13.354Z,17.31
2023-04-23T06:53:01.629Z,17.39
2023-04-23T06:55:36.088Z,17.33
2023-04-23T06:58:44.170Z,17.51
2023-04-23T07:04:42.390Z,17.84
2023-04-23T07:07:35.461Z,17.68
2023-04-23T07:10:38.238Z,17.58
2023-04-23T07:13:23.461Z,17.45
2023-04-23T07:16:27.394Z,17.66
2023-04-23T07:19:18.555Z,17.72
2023-04-23T07:22:27.765Z,17.88
2023-04-23T07:24:52.124Z,17.99
2023-04-23T07:27:26.489Z,18.24
2023-04-23T07:30:03.498Z,18.67
2023-04-23T07:32:34.997Z,19.25
2023-04-23T07:35:14.421Z,19.41
2023-04-23T07:37:48.460Z,19.63
2023-04-23T07:40:23.928Z,19.81
2023-04-23T07:46:13.750Z,20.06
2023-04-23T07:48:56.128Z,20.23
2023-04-23T07:51:39.956Z,19.99
2023-04-23T07:54:31.671Z,19.92
2023-04-23T07:57:16.689Z,19.85
2023-04-23T07:59:53.702Z,19.70
2023-04-23T08:02:29.356Z,19.79
2023-04-23T08:05:04.552Z,19.99
2023-04-23T08:07:48.885Z,20.10
2023-04-23T08:10:23.485Z,20.22
2023-04-23T08:13:07.446Z,20.21
2023-04-23T08:15:40.265Z,20.34
2023-04-23T08:18:15.570Z,20.58
2023-04-23T08:20:51.942Z,20.87
2023-04-23T08:23:29.883Z,21.18
2023-04-23T08:26:09.347Z,21.34
2023-04-23T08:28:39.010Z,21.76
2023-04-23T08:31:26.250Z,22.05
2023-04-23T08:33:59.114Z,22.31
2023-04-23T08:36:41.122Z,22.42
2023-04-23T08:39:14.045Z,22.37
2023-04-23T08:41:50.861Z,22.38
2023-04-23T08:44:28.238Z,22.22
2023-04-23T08:47:02.862Z,21.85
2023-04-23T08:49:34.767Z,21.90
2023-04-23T08:52:16.970Z,22.01
2023-04-23T08:54:49.328Z,22.11
2023-04-23T08:57:17.990Z,22.03
2023-04-23T08:59:47.449Z,22.08
2023-04-23T09:02:16.999Z,22.38
2023-04-23T09:04:46.331Z,22.50
2023-04-23T09:07:15.430Z,22.77
2023-04-23T09:09:44.849Z,23.06
2023-04-23T09:12:12.889Z,23.37
2023-04-23T09:14:41.132Z,23.51
2023-04-23T09:17:09.455Z,23.48
2023-04-23T09:19:40.664Z,23.45
2023-04-23T09:22:09.568Z,23.38
2023-04-23T09:24:37.449Z,23.19
2023-04-23T09:27:05.577Z,23.14
2023-04-23T09:29:33.573Z,23.19
2023-04-23T09:32:09.852Z,23.10
2023-04-23T09:34:38.260Z,23.07
2023-04-23T09:37:10.782Z,23.13
2023-04-23T09:39:40.736Z,23.06
2023-04-23T09:42:10.743Z,23.05
2023-04-23T09:44:38.697Z,23.07
2023-04-23T09:47:14.004Z,22.84
2023-04-23T09:49:50.592Z,22.46
2023-04-23T09:52:19.097Z,22.36
2023-04-23T09:54:47.105Z,22.44
2023-04-23T09:57:14.957Z,22.31
2023-04-23T09:59:47.711Z,22.36
2023-04-23T10:02:16.322Z,22.27
2023-04-23T10:04:44.699Z,22.40
2023-04-23T10:09:43.528Z,22.91
2023-04-23T10:12:29.575Z,22.92
2023-04-23T10:14:44.610Z,22.76
2023-04-23T10:17:12.824Z,22.58
2023-04-23T10:19:43.374Z,22.76
2023-04-23T10:22:19.125Z,23.10
2023-04-23T10:24:49.163Z,23.33
2023-04-23T10:29:55.061Z,23.84
2023-04-23T10:32:24.489Z,23.93
2023-04-23T10:34:53.461Z,23.95
2023-04-23T10:37:22.367Z,23.91
2023-04-23T10:39:54.976Z,23.98
2023-04-23T10:42:23.692Z,23.59
2023-04-23T10:45:02.726Z,23.57
2023-04-23T10:47:31.269Z,23.61
2023-04-23T10:50:04.744Z,23.61
2023-04-23T10:52:33.003Z,23.65
2023-04-23T10:55:01.313Z,23.72
2023-04-23T10:57:29.488Z,23.40
2023-04-23T10:59:58.605Z,23.05
2023-04-23T11:02:26.852Z,22.61
2023-04-23T11:04:58.818Z,22.05
2023-04-23T11:07:33.278Z,21.32
2023-04-23T11:10:15.578Z,20.61
2023-04-23T11:12:45.022Z,20.24
2023-04-23T11:15:16.240Z,19.69
2023-04-23T11:17:49.863Z,19.39
2023-04-23T11:20:23.425Z,19.13
2023-04-23T11:22:52.982Z,18.78
2023-04-23T11:25:26.110Z,18.65
2023-04-23T11:28:01.304Z,18.65
2023-04-23T11:30:30.582Z,18.54
2023-04-23T11:33:00.771Z,18.54
2023-04-23T11:35:30.054Z,18.45
2023-04-23T11:37:58.120Z,18.41
2023-04-23T11:40:28.106Z,18.28
2023-04-23T11:42:57.129Z,18.05
2023-04-23T11:45:28.038Z,18.03
2023-04-23T11:47:58.517Z,17.88
2023-04-23T11:50:30.077Z,17.84
2023-04-23T11:52:58.743Z,17.89
2023-04-23T11:55:28.961Z,17.98
2023-04-23T11:58:00.001Z,17.91
2023-04-23T12:00:28.114Z,17.90
2023-04-23T12:02:59.593Z,18.00
2023-04-23T12:05:39.084Z,18.03
2023-04-23T12:08:15.962Z,18.02
2023-04-23T12:10:57.351Z,18.29
2023-04-23T12:13:30.752Z,18.71
2023-04-23T12:16:01.507Z,19.09
2023-04-23T12:18:32.886Z,19.30
2023-04-23T12:21:12.926Z,19.49
2023-04-23T12:23:44.206Z,19.46
2023-04-23T12:26:16.504Z,19.49
2023-04-23T12:28:56.648Z,19.51
2023-04-23T12:31:29.603Z,19.68
2023-04-23T12:34:10.232Z,19.81
2023-04-23T12:36:40.651Z,19.95
2023-04-23T12:39:33.525Z,20.04
2023-04-23T12:42:06.208Z,20.16
2023-04-23T12:44:36.886Z,20.25
2023-04-23T12:47:11.733Z,20.24
2023-04-23T12:49:43.289Z,20.20
2023-04-23T12:52:14.012Z,20.24
2023-04-23T12:54:49.708Z,20.17
2023-04-23T12:57:21.170Z,20.03
2023-04-23T12:59:51.516Z,19.89
2023-04-23T13:02:19.905Z,19.76
2023-04-23T13:04:48.242Z,19.70
2023-04-23T13:07:16.392Z,19.60
2023-04-23T13:09:45.651Z,19.48
2023-04-23T13:12:13.852Z,19.39
2023-04-23T13:14:41.960Z,19.37
2023-04-23T13:17:09.865Z,19.42
2023-04-23T13:19:39.438Z,19.44
2023-04-23T13:22:08.631Z,19.47
2023-04-23T13:24:37.207Z,19.58
2023-04-23T13:27:05.437Z,19.66
2023-04-23T13:29:33.609Z,19.75
2023-04-23T13:32:01.710Z,19.88
2023-04-23T13:34:30.425Z,19.92
2023-04-23T13:37:03.044Z,19.83
2023-04-23T13:39:32.386Z,19.69
2023-04-23T13:42:09.076Z,19.61
2023-04-23T13:44:32.059Z,19.59
2023-04-23T13:47:01.461Z,19.53
2023-04-23T13:49:30.257Z,19.40
2023-04-23T13:52:00.139Z,19.34
2023-04-23T13:54:29.273Z,19.25
2023-04-23T13:56:58.893Z,19.17
2023-04-23T13:59:27.324Z,19.17
2023-04-23T14:01:55.321Z,19.15
2023-04-23T14:04:25.037Z,19.18
2023-04-23T14:06:53.272Z,19.15
2023-04-23T14:09:23.902Z,19.05
2023-04-23T14:11:54.922Z,18.98
2023-04-23T14:14:36.247Z,18.84
2023-04-23T14:17:04.444Z,18.73
2023-04-23T14:19:35.068Z,18.64
2023-04-23T14:22:04.003Z,18.57
2023-04-23T14:24:40.127Z,18.53
2023-04-23T14:27:09.100Z,18.46
2023-04-23T14:29:48.427Z,18.39
2023-04-23T14:32:16.552Z,18.37
2023-04-23T14:34:46.031Z,18.38
2023-04-23T14:37:17.383Z,18.36
2023-04-23T14:39:46.502Z,18.32
2023-04-23T14:42:15.425Z,18.31
2023-04-23T14:44:45.607Z,18.39
2023-04-23T14:47:16.616Z,18.48
2023-04-23T14:49:47.924Z,18.58
2023-04-23T14:52:17.103Z,18.71
2023-04-23T14:54:46.105Z,18.85
2023-04-23T14:57:14.182Z,18.92
2023-04-23T14:59:47.785Z,18.97
2023-04-23T15:02:16.833Z,19.02
2023-04-23T15:04:45.855Z,19.06
2023-04-23T15:07:13.923Z,19.07
2023-04-23T15:09:42.338Z,19.07
2023-04-23T15:12:24.682Z,19.10
2023-04-23T15:14:54.794Z,19.15
2023-04-23T15:17:23.148Z,19.13
2023-04-23T15:19:52.822Z,19.08
2023-04-23T15:22:20.888Z,19.04
2023-04-23T15:24:49.086Z,19.01
2023-04-23T15:27:17.159Z,18.98
2023-04-23T15:29:45.110Z,18.93
2023-04-23T15:32:32.028Z,18.93
2023-04-23T15:35:08.436Z,18.98
2023-04-23T15:37:36.645Z,18.97
2023-04-23T15:40:07.560Z,18.94
2023-04-23T15:42:35.439Z,18.93
2023-04-23T15:45:04.287Z,18.86
2023-04-23T15:47:32.324Z,18.78
2023-04-23T15:50:01.633Z,18.73
2023-04-23T15:52:30.699Z,18.72
2023-04-23T15:54:59.211Z,18.75
2023-04-23T15:57:27.261Z,18.80
2023-04-23T15:59:57.548Z,18.76
2023-04-23T16:02:25.407Z,18.75
2023-04-23T16:04:55.363Z,18.76
2023-04-23T16:07:23.224Z,18.76
2023-04-23T16:09:51.227Z,18.74
2023-04-23T16:12:19.098Z,18.75
2023-04-23T16:14:47.107Z,18.74
2023-04-23T16:17:16.484Z,18.69
2023-04-23T16:19:45.000Z,18.63
2023-04-23T16:22:14.350Z,18.59
2023-04-23T16:24:42.380Z,18.55
2023-04-23T16:27:16.013Z,18.51
2023-04-23T16:29:44.643Z,18.47
2023-04-23T16:32:12.753Z,18.45
2023-04-23T16:34:41.156Z,18.39
2023-04-23T16:37:09.803Z,18.31
2023-04-23T16:39:37.665Z,18.22
2023-04-23T16:42:06.291Z,18.10
2023-04-23T16:44:34.451Z,17.95
2023-04-23T16:47:02.569Z,17.84
2023-04-23T16:49:30.742Z,17.66
2023-04-23T16:51:58.343Z,17.54
2023-04-23T16:54:26.492Z,17.44
2023-04-23T16:56:55.270Z,17.36
2023-04-23T16:59:25.005Z,17.23
2023-04-23T17:02:02.238Z,17.09
2023-04-23T17:04:30.412Z,16.98
2023-04-23T17:06:58.514Z,16.76
2023-04-23T17:09:26.426Z,16.57
2023-04-23T17:11:54.488Z,16.41
2023-04-23T17:14:22.687Z,16.22
2023-04-23T17:16:50.421Z,16.07
2023-04-23T17:19:18.197Z,15.96
2023-04-23T17:21:45.933Z,15.90
2023-04-23T17:24:16.517Z,15.84
2023-04-23T17:26:44.725Z,15.77
2023-04-23T17:29:15.528Z,15.65
2023-04-23T17:31:43.414Z,15.58
2023-04-23T17:34:11.385Z,15.53
2023-04-23T17:36:39.427Z,15.47
2023-04-23T17:39:15.999Z,15.45
2023-04-23T17:41:43.934Z,15.40
2023-04-23T17:44:15.233Z,15.36
2023-04-23T17:46:43.032Z,15.34
2023-04-23T17:49:11.778Z,15.26
2023-04-23T17:51:42.127Z,15.22
2023-04-23T17:54:12.228Z,15.17
2023-04-23T17:56:45.482Z,15.13
2023-04-23T17:59:13.654Z,15.07
2023-04-23T18:01:46.326Z,14.99
2023-04-23T18:04:13.993Z,14.90
2023-04-23T18:06:42.965Z,14.82
2023-04-23T18:09:11.351Z,14.74
2023-04-23T18:11:39.866Z,14.67
2023-04-23T18:14:07.963Z,14.52
2023-04-23T18:16:36.467Z,14.39
2023-04-23T18:19:04.597Z,14.28
2023-04-23T18:21:33.597Z,14.17
2023-04-23T18:24:01.534Z,14.04
2023-04-23T18:26:33.456Z,13.93
2023-04-23T18:29:01.960Z,13.87
2023-04-23T18:31:34.144Z,13.82
2023-04-23T18:34:10.877Z,13.77
2023-04-23T18:36:44.277Z,13.67
2023-04-23T18:39:12.515Z,13.53
2023-04-23T18:41:55.567Z,13.42
2023-04-23T18:44:25.676Z,13.30
2023-04-23T18:46:53.862Z,13.20
2023-04-23T18:49:41.210Z,13.13
2023-04-23T18:52:12.097Z,13.04
2023-04-23T18:54:43.687Z,12.93
2023-04-23T18:57:11.851Z,12.84
2023-04-23T18:59:40.183Z,12.77
2023-04-23T19:02:18.784Z,12.70
2023-04-23T19:04:47.281Z,12.60
2023-04-23T19:07:17.293Z,12.50
2023-04-23T19:09:45.516Z,12.44
2023-04-23T19:12:20.045Z,12.37
2023-04-23T19:14:50.233Z,12.35
2023-04-23T19:17:20.916Z,12.28
2023-04-23T19:19:49.791Z,12.19
2023-04-23T19:22:23.612Z,12.14
2023-04-23T19:24:52.896Z,12.08
2023-04-23T19:27:24.413Z,12.02
2023-04-23T19:29:58.637Z,11.99
2023-04-23T19:32:30.452Z,11.98
2023-04-23T19:35:01.707Z,11.95
2023-04-23T19:37:31.630Z,11.93
2023-04-23T19:40:00.620Z,11.92
2023-04-23T19:42:31.293Z,11.91
2023-04-23T19:44:59.861Z,11.89
2023-04-23T19:47:28.427Z,11.86
2023-04-23T19:49:56.982Z,11.82
2023-04-23T19:52:27.832Z,11.77
2023-04-23T19:54:59.334Z,11.71
2023-04-23T19:57:30.422Z,11.67
2023-04-23T20:00:01.152Z,11.64
2023-04-23T20:02:29.231Z,11.57
2023-04-23T20:04:57.301Z,11.55
2023-04-23T20:07:25.677Z,11.50
2023-04-23T20:09:56.694Z,11.47
2023-04-23T20:12:25.184Z,11.41
2023-04-23T20:14:53.901Z,11.39
2023-04-23T20:17:23.360Z,11.37
2023-04-23T20:19:52.112Z,11.29
2023-04-23T20:22:20.401Z,11.19
2023-04-23T20:24:48.596Z,11.16
2023-04-23T20:27:16.644Z,11.14
2023-04-23T20:29:44.808Z,11.10
2023-04-23T20:32:13.468Z,11.03
2023-04-23T20:34:41.614Z,10.98
2023-04-23T20:37:10.441Z,10.95
2023-04-23T20:39:45.289Z,10.92
2023-04-23T20:42:18.531Z,10.90
2023-04-23T20:44:46.632Z,10.86
2023-04-23T20:47:16.252Z,10.83
2023-04-23T20:49:48.974Z,10.79
2023-04-23T20:52:17.154Z,10.68
2023-04-23T20:54:48.612Z,10.62
2023-04-23T20:57:17.167Z,10.54
2023-04-23T20:59:45.127Z,10.54
2023-04-23T21:02:17.018Z,10.50
2023-04-23T21:04:44.973Z,10.48
2023-04-23T21:07:13.016Z,10.47
2023-04-23T21:09:41.594Z,10.44
2023-04-23T21:12:13.078Z,10.40
2023-04-23T21:18:03.737Z,10.30
2023-04-23T21:20:32.144Z,10.23
2023-04-23T21:23:00.823Z,10.19
2023-04-23T21:25:28.922Z,10.15
2023-04-23T21:27:58.123Z,10.10
2023-04-23T21:30:43.155Z,10.05
2023-04-23T21:33:11.328Z,10.01
2023-04-23T21:35:41.857Z,9.92
2023-04-23T21:38:12.502Z,9.91
2023-04-23T21:40:41.438Z,9.82
2023-04-23T21:43:10.090Z,9.76
2023-04-23T21:45:39.303Z,9.68
2023-04-23T21:48:07.495Z,9.63
2023-04-23T21:50:35.740Z,9.60
2023-04-23T21:53:03.563Z,9.56
2023-04-23T21:55:31.580Z,9.53
2023-04-23T21:58:13.800Z,9.50
2023-04-23T22:00:30.366Z,9.49
2023-04-23T22:02:58.550Z,9.48
2023-04-23T22:05:28.055Z,9.46
2023-04-23T22:07:57.845Z,9.45
2023-04-23T22:10:26.663Z,9.41
2023-04-23T22:12:55.727Z,9.39
2023-04-23T22:15:44.718Z,9.37
2023-04-23T22:18:13.019Z,9.36
2023-04-23T22:20:42.752Z,9.32
2023-04-23T22:23:10.811Z,9.26
2023-04-23T22:25:38.606Z,9.23
2023-04-23T22:28:07.160Z,9.19
2023-04-23T22:30:36.126Z,9.14
2023-04-23T22:33:05.061Z,9.01
2023-04-23T22:35:33.089Z,9.03
2023-04-23T22:38:03.568Z,8.98
2023-04-23T22:40:32.015Z,8.93
2023-04-23T22:43:00.875Z,8.87
2023-04-23T22:45:30.454Z,8.83
2023-04-23T22:47:58.495Z,8.81
2023-04-23T22:50:28.731Z,8.75
2023-04-23T22:52:56.730Z,8.72
2023-04-23T22:55:24.639Z,8.70
2023-04-23T22:57:52.503Z,8.70
2023-04-23T23:00:20.388Z,8.71
2023-04-23T23:02:48.301Z,8.71
2023-04-23T23:05:16.384Z,8.74
2023-04-23T23:07:44.216Z,8.73
2023-04-23T23:10:12.229Z,8.74
2023-04-23T23:12:40.043Z,8.73
2023-04-23T23:15:09.911Z,8.72
2023-04-23T23:17:38.050Z,8.72
2023-04-23T23:20:13.831Z,8.71
2023-04-23T23:22:42.703Z,8.72
2023-04-23T23:25:10.712Z,8.73
2023-04-23T23:27:38.688Z,8.74
2023-04-23T23:30:09.030Z,8.74
2023-04-23T23:32:38.851Z,8.75
2023-04-23T23:35:07.765Z,8.78
2023-04-23T23:37:35.835Z,8.79
2023-04-23T23:40:06.366Z,8.80
2023-04-23T23:42:34.462Z,8.82
2023-04-23T23:45:02.430Z,8.83
2023-04-23T23:47:31.065Z,8.84
2023-04-23T23:49:58.903Z,8.85
2023-04-23T23:52:27.164Z,8.87
2023-04-23T23:54:55.175Z,8.87
2023-04-23T23:57:27.972Z,8.88
2023-04-23T23:59:56.465Z,8.90
